Time;durP1;ratioP1;P1;durP2;ratioP2;P2;SDS_P1;SDS_P2;PMS_P1;PMS_P2;Temp;Humidity;BMP_temperature;BMP_pressure;BME280_temperature;BME280_humidity;BME280_pressure;Samples;Min_cycle;Max_cycle;Signal;HPM_P1;HPM_P2
2022/08/11 00:00:05;;;;;;;2.90;2.70;;;19.90;61.50;;;;;;5007226;28;20183;-62
2022/08/11 00:02:41;;;;;;;3.20;2.90;;;19.80;62.00;;;;;;5011182;28;20195;-62
2022/08/11 00:05:15;;;;;;;3.05;2.83;;;19.70;62.40;;;;;;5009452;28;20179;-64
2022/08/11 00:07:47;;;;;;;3.25;3.05;;;19.60;62.70;;;;;;5001482;28;20229;-64
2022/08/11 00:10:19;;;;;;;3.97;2.70;;;19.60;63.10;;;;;;5010026;28;20199;-61
2022/08/11 00:12:51;;;;;;;4.35;3.08;;;19.50;63.80;;;;;;5010544;28;20198;-62
2022/08/11 00:15:18;;;;;;;3.53;3.22;;;19.40;64.20;;;;;;5010466;28;20197;-63
2022/08/11 00:17:44;;;;;;;2.92;2.72;;;19.40;64.40;;;;;;5007378;28;20227;-65
2022/08/11 00:20:13;;;;;;;2.80;2.60;;;19.40;64.70;;;;;;5003765;28;20178;-62
2022/08/11 00:22:42;;;;;;;3.28;2.97;;;19.30;65.20;;;;;;5007128;28;20189;-62
2022/08/11 00:25:16;;;;;;;3.50;3.20;;;19.50;66.00;;;;;;5006729;28;20258;-62
2022/08/11 00:27:43;;;;;;;3.15;2.95;;;19.20;65.90;;;;;;5000291;28;20222;-64
2022/08/11 00:30:11;;;;;;;3.33;3.13;;;19.20;66.30;;;;;;5002875;28;20184;-61
2022/08/11 00:32:39;;;;;;;3.40;3.10;;;19.10;66.80;;;;;;5011080;28;20214;-64
2022/08/11 00:35:09;;;;;;;3.22;2.92;;;18.50;66.50;;;;;;5008068;28;20668;-61
2022/08/11 00:37:37;;;;;;;3.45;3.15;;;19.00;67.40;;;;;;5005779;28;20211;-63
2022/08/11 00:40:09;;;;;;;3.58;3.28;;;18.60;68.40;;;;;;5002983;28;20885;-62
2022/08/11 00:43:00;;;;;;;2.92;2.72;;;19.10;69.00;;;;;;5004678;28;20183;-62
2022/08/11 00:45:38;;;;;;;4.55;3.03;;;19.70;69.10;;;;;;5010722;28;20264;-62
2022/08/11 00:48:09;;;;;;;4.90;3.00;;;19.00;68.70;;;;;;5008415;28;20579;-63
2022/08/11 00:50:48;;;;;;;3.88;3.58;;;19.00;68.90;;;;;;5007247;28;20206;-62
2022/08/11 00:53:23;;;;;;;3.50;3.28;;;19.00;69.50;;;;;;5006944;28;20607;-64
2022/08/11 00:56:16;;;;;;;3.30;2.72;;;18.90;69.50;;;;;;5010766;28;20239;-62
2022/08/11 00:59:15;;;;;;;3.47;3.17;;;18.80;70.10;;;;;;5002593;28;20250;-65
2022/08/11 01:02:15;;;;;;;3.42;3.17;;;18.90;70.70;;;;;;5008732;28;20206;-62
2022/08/11 01:05:30;;;;;;;3.20;3.00;;;18.90;70.80;;;;;;5003087;28;20274;-62
2022/08/11 01:08:14;;;;;;;2.95;2.75;;;18.80;71.20;;;;;;4986140;28;20230;-62
2022/08/11 01:10:58;;;;;;;3.45;2.72;;;19.00;70.80;;;;;;5005592;28;20636;-62
2022/08/11 01:13:42;;;;;;;3.00;2.80;;;19.10;70.70;;;;;;5006521;28;20190;-61
2022/08/11 01:16:34;;;;;;;3.10;2.90;;;19.20;70.40;;;;;;5004379;28;20184;-62
2022/08/11 01:19:52;;;;;;;4.53;2.95;;;19.20;71.00;;;;;;5009843;28;20225;-61
2022/08/11 01:23:11;;;;;;;3.03;2.83;;;19.30;70.30;;;;;;4929804;29;20186;-61
2022/08/11 01:26:00;;;;;;;3.38;3.15;;;19.20;70.60;;;;;;4924895;29;20195;-60
2022/08/11 01:28:46;;;;;;;4.53;2.97;;;19.20;70.70;;;;;;4921139;29;20214;-62
2022/08/11 01:31:33;;;;;;;3.60;3.30;;;19.20;70.30;;;;;;4997916;28;20226;-62
2022/08/11 01:34:36;;;;;;;3.35;2.92;;;19.00;71.10;;;;;;5008226;28;20636;-62
2022/08/11 01:37:39;;;;;;;3.05;2.85;;;19.10;72.00;;;;;;5010336;28;20217;-63
2022/08/11 01:40:29;;;;;;;3.28;3.08;;;19.00;72.60;;;;;;5006554;28;20181;-62
2022/08/11 01:46:11;;;;;;;3.30;3.10;;;18.80;73.90;;;;;;5010383;28;20241;-62
2022/08/11 01:48:42;;;;;;;3.63;3.33;;;18.70;73.90;;;;;;5011018;28;20207;-62
2022/08/11 01:51:16;;;;;;;3.50;3.20;;;18.70;73.80;;;;;;5010016;28;20544;-63
2022/08/11 01:54:05;;;;;;;4.28;3.88;;;18.70;73.90;;;;;;5013055;28;20194;-61
2022/08/11 01:56:57;;;;;;;3.97;3.53;;;18.30;73.60;;;;;;5012957;28;20273;-64
2022/08/11 01:59:33;;;;;;;3.17;2.88;;;18.60;74.30;;;;;;5012655;28;20199;-62
2022/08/11 02:02:20;;;;;;;4.00;3.70;;;18.60;74.60;;;;;;5012137;28;20194;-62
2022/08/11 02:04:55;;;;;;;2.90;2.70;;;18.50;75.80;;;;;;5013455;28;20273;-64
2022/08/11 02:07:51;;;;;;;3.05;2.85;;;18.60;75.40;;;;;;5008972;28;20190;-62
2022/08/11 02:13:44;;;;;;;3.15;2.83;;;18.40;76.00;;;;;;5007610;28;20566;-62
2022/08/11 02:16:20;;;;;;;3.33;3.10;;;18.40;76.40;;;;;;5009123;28;20226;-61
2022/08/11 02:25:21;;;;;;;3.38;3.15;;;18.30;78.60;;;;;;5012630;28;20193;-61
2022/08/11 02:27:59;;;;;;;3.45;3.25;;;18.50;78.60;;;;;;5012973;28;20205;-60
2022/08/11 02:30:31;;;;;;;3.50;3.20;;;18.70;77.60;;;;;;5012444;28;20187;-61
2022/08/11 02:33:23;;;;;;;3.97;3.50;;;18.90;74.60;;;;;;5010694;28;20187;-61
2022/08/11 02:35:49;;;;;;;2.92;2.72;;;19.20;75.00;;;;;;5008643;28;20201;-61
2022/08/11 02:38:51;;;;;;;3.00;2.80;;;19.50;74.00;;;;;;5007172;28;20210;-61
2022/08/11 02:44:28;;;;;;;4.25;3.40;;;19.90;70.80;;;;;;5009170;28;20191;-61
2022/08/11 02:47:17;;;;;;;4.25;3.85;;;20.00;71.00;;;;;;5009597;28;20267;-60
2022/08/11 02:49:54;;;;;;;3.80;3.38;;;19.90;70.90;;;;;;5009115;28;20238;-60
2022/08/11 02:52:30;;;;;;;3.50;3.20;;;19.60;71.80;;;;;;5008164;28;20253;-60
2022/08/11 02:55:14;;;;;;;4.10;3.63;;;19.30;73.40;;;;;;5012691;28;20179;-60
2022/08/11 02:57:46;;;;;;;3.45;3.25;;;19.10;74.30;;;;;;5008508;28;20218;-60
2022/08/11 03:00:14;;;;;;;4.28;3.88;;;19.00;75.40;;;;;;5011020;28;20175;-60
2022/08/11 03:02:50;;;;;;;3.33;3.13;;;18.90;75.30;;;;;;5014279;28;20195;-61
2022/08/11 03:05:56;;;;;;;3.20;2.90;;;18.80;76.10;;;;;;5012158;28;20186;-60
2022/08/11 03:08:22;;;;;;;3.78;3.55;;;18.40;76.60;;;;;;5009643;28;20199;-60
2022/08/11 03:17:22;;;;;;;3.67;3.38;;;18.30;79.20;;;;;;5010499;28;20210;-60
2022/08/11 03:20:25;;;;;;;3.60;3.30;;;18.10;80.80;;;;;;5008272;28;20189;-60
2022/08/11 03:23:17;;;;;;;3.70;3.40;;;18.00;80.30;;;;;;5009620;28;20563;-60
2022/08/11 03:25:50;;;;;;;3.85;3.47;;;18.00;81.00;;;;;;5003841;28;20191;-60
2022/08/11 03:28:32;;;;;;;3.30;3.10;;;17.90;81.40;;;;;;5010908;28;20237;-60
2022/08/11 03:30:58;;;;;;;4.03;3.58;;;17.80;82.20;;;;;;5008974;28;20187;-60
2022/08/11 03:36:43;;;;;;;3.50;3.25;;;17.80;83.40;;;;;;5009249;28;20237;-60
2022/08/11 03:39:19;;;;;;;3.88;3.58;;;17.70;83.90;;;;;;5000776;28;20691;-60
2022/08/11 03:42:08;;;;;;;3.72;3.42;;;17.70;85.60;;;;;;5008151;28;20656;-60
2022/08/11 03:44:55;;;;;;;4.00;3.60;;;17.70;85.90;;;;;;5006994;28;20179;-60
2022/08/11 03:47:36;;;;;;;3.70;3.42;;;17.60;85.70;;;;;;5006238;28;20644;-61
2022/08/11 03:50:38;;;;;;;3.72;3.42;;;17.50;86.00;;;;;;5008656;28;20220;-60
2022/08/11 03:53:15;;;;;;;3.65;3.35;;;17.50;86.80;;;;;;5015798;28;20189;-65
2022/08/11 03:56:06;;;;;;;3.90;3.60;;;17.40;87.00;;;;;;5009895;28;20536;-62
2022/08/11 03:58:56;;;;;;;3.97;3.58;;;17.40;87.40;;;;;;5006347;28;20214;-62
2022/08/11 04:02:03;;;;;;;3.92;3.63;;;17.40;88.10;;;;;;5004276;28;20191;-61
2022/08/11 04:04:57;;;;;;;4.18;3.45;;;17.30;88.30;;;;;;5002080;28;20721;-62
2022/08/11 04:07:35;;;;;;;3.78;3.33;;;17.20;88.60;;;;;;5007460;28;20267;-65
2022/08/11 04:10:36;;;;;;;3.53;3.22;;;17.10;89.30;;;;;;5008117;28;21297;-62
2022/08/11 04:13:20;;;;;;;4.57;4.18;;;17.10;89.70;;;;;;5009174;28;20182;-60
2022/08/11 04:16:20;;;;;;;4.30;3.90;;;17.20;90.20;;;;;;5011214;28;20186;-60
2022/08/11 04:18:54;;;;;;;4.50;4.10;;;17.30;90.20;;;;;;5007819;28;20291;-60
2022/08/11 04:21:43;;;;;;;6.45;4.18;;;17.00;90.20;;;;;;5008738;28;20192;-61
2022/08/11 04:24:26;;;;;;;4.10;3.50;;;16.90;90.40;;;;;;5004303;28;20183;-61
2022/08/11 04:27:29;;;;;;;4.20;3.80;;;16.80;90.50;;;;;;5009865;28;20218;-61
2022/08/11 04:30:05;;;;;;;6.03;3.90;;;16.90;90.80;;;;;;5009686;28;20185;-61
2022/08/11 04:32:56;;;;;;;4.40;4.10;;;16.80;90.80;;;;;;4994995;28;20266;-61
2022/08/11 04:35:42;;;;;;;4.00;3.80;;;16.60;90.90;;;;;;5006899;28;20187;-61
2022/08/11 04:38:35;;;;;;;4.68;4.18;;;16.90;91.20;;;;;;5006195;28;20273;-61
2022/08/11 04:41:19;;;;;;;4.10;3.53;;;16.80;91.80;;;;;;5010574;28;20183;-63
2022/08/11 04:44:04;;;;;;;4.03;3.63;;;16.80;92.10;;;;;;5005720;28;20263;-60
2022/08/11 04:46:51;;;;;;;5.68;3.95;;;16.80;91.70;;;;;;5009137;28;20258;-59
2022/08/11 05:02:02;;;;;;;11.63;5.20;;;16.80;92.00;;;;;;5004470;28;20324;-60
2022/08/11 05:08:09;;;;;;;5.18;4.45;;;16.90;92.00;;;;;;5007186;28;20218;-60
2022/08/11 05:10:38;;;;;;;4.85;4.32;;;17.10;92.00;;;;;;5007335;28;20183;-62
2022/08/11 05:35:54;;;;;;;4.80;4.40;;;17.50;90.80;;;;;;5011686;28;20190;-62
2022/08/11 05:57:56;;;;;;;6.03;4.30;;;18.50;88.50;;;;;;5005599;28;20251;-66
2022/08/11 06:00:23;;;;;;;4.53;4.13;;;18.80;88.60;;;;;;4969924;28;1052381;-66
2022/08/11 06:02:55;;;;;;;5.88;4.35;;;19.00;87.40;;;;;;5013086;28;20835;-67
2022/08/11 06:05:21;;;;;;;5.68;4.22;;;19.20;86.30;;;;;;5010227;28;20182;-66
2022/08/11 06:07:48;;;;;;;6.32;4.40;;;19.30;87.10;;;;;;5013604;28;20211;-66
2022/08/11 06:10:29;;;;;;;5.10;4.03;;;19.50;86.60;;;;;;5012887;28;20663;-66
2022/08/11 06:12:57;;;;;;;6.93;6.13;;;19.70;85.00;;;;;;5010011;28;20241;-66
2022/08/11 06:15:24;;;;;;;5.35;4.10;;;19.80;82.60;;;;;;5009829;28;20195;-66
2022/08/11 06:17:50;;;;;;;5.60;5.10;;;19.90;80.60;;;;;;5010625;28;20300;-66
2022/08/11 06:20:19;;;;;;;5.70;4.68;;;20.10;81.80;;;;;;5010837;28;20195;-66
2022/08/11 06:22:53;;;;;;;6.60;6.00;;;20.20;80.70;;;;;;5011422;28;20285;-60
2022/08/11 06:25:20;;;;;;;5.95;4.43;;;20.40;80.80;;;;;;5013765;28;20181;-61
2022/08/11 06:27:55;;;;;;;5.28;4.60;;;20.50;79.60;;;;;;5007311;28;20206;-60
2022/08/11 06:30:38;;;;;;;9.00;5.15;;;20.60;79.60;;;;;;5010152;28;20593;-59
2022/08/11 06:33:08;;;;;;;6.22;5.05;;;20.70;76.80;;;;;;5010263;28;20194;-68
2022/08/11 06:36:05;;;;;;;5.15;4.70;;;20.80;76.10;;;;;;5008331;28;20281;-68
2022/08/11 06:38:59;;;;;;;4.90;4.35;;;20.90;75.50;;;;;;5008110;28;20230;-67
2022/08/11 06:41:45;;;;;;;4.78;4.47;;;21.00;74.80;;;;;;5006224;28;20178;-66
2022/08/11 06:44:13;;;;;;;5.13;4.10;;;21.10;74.20;;;;;;5003989;28;20590;-68
2022/08/11 06:46:40;;;;;;;5.15;4.20;;;21.20;74.60;;;;;;5010107;28;20237;-67
2022/08/11 06:51:55;;;;;;;5.53;4.47;;;21.40;72.60;;;;;;5010520;28;20520;-67
2022/08/11 06:54:22;;;;;;;5.60;4.90;;;21.50;72.50;;;;;;5009680;28;20505;-66
2022/08/11 07:02:29;;;;;;;5.10;4.60;;;21.80;70.20;;;;;;5005165;28;20456;-69
2022/08/11 07:05:00;;;;;;;5.23;4.23;;;22.00;69.70;;;;;;5008317;28;20802;-68
2022/08/11 07:16:03;;;;;;;4.77;4.10;;;25.50;61.00;;;;;;5013404;28;20443;-60
2022/08/11 07:29:56;;;;;;;3.73;3.53;;;36.70;35.40;;;;;;5002461;28;20484;-66
2022/08/11 07:32:29;;;;;;;4.80;3.90;;;36.80;34.00;;;;;;5011203;28;20440;-63
2022/08/11 07:35:01;;;;;;;4.80;3.87;;;38.40;31.80;;;;;;5015071;28;20442;-67
2022/08/11 07:37:32;;;;;;;5.03;4.27;;;38.30;31.90;;;;;;5007553;28;20481;-63
2022/08/11 07:39:58;;;;;;;3.90;3.70;;;38.60;30.80;;;;;;5004841;28;20533;-64
2022/08/11 07:42:29;;;;;;;5.80;4.37;;;40.00;29.90;;;;;;5006565;28;20448;-66
2022/08/11 07:53:13;;;;;;;4.70;4.07;;;39.60;28.50;;;;;;5003530;28;20468;-63
2022/08/11 07:55:40;;;;;;;5.23;4.43;;;37.50;29.80;;;;;;5000400;28;20453;-68
2022/08/11 08:17:51;;;;;;;3.87;3.57;;;41.00;26.60;;;;;;5007753;28;20530;-63
2022/08/11 08:20:24;;;;;;;3.83;3.50;;;40.70;27.10;;;;;;5002887;28;20480;-65
2022/08/11 08:22:55;;;;;;;4.20;3.90;;;39.60;27.20;;;;;;5002430;28;20449;-69
2022/08/11 08:25:25;;;;;;;4.00;3.70;;;39.40;27.90;;;;;;5006954;28;20438;-70
2022/08/11 08:27:52;;;;;;;9.23;5.53;;;40.00;27.60;;;;;;5007056;28;20810;-71
2022/08/11 08:33:03;;;;;;;4.10;3.70;;;41.00;26.10;;;;;;4997147;28;20429;-70
2022/08/11 08:35:29;;;;;;;3.67;3.37;;;40.00;26.00;;;;;;5009051;28;20550;-69
2022/08/11 08:37:59;;;;;;;5.10;4.30;;;39.70;27.40;;;;;;5003228;28;20523;-69
2022/08/11 08:40:26;;;;;;;5.20;4.03;;;39.60;26.90;;;;;;5009477;28;20437;-69
2022/08/11 08:42:58;;;;;;;4.10;3.80;;;40.10;26.60;;;;;;5009878;28;20512;-69
2022/08/11 08:45:26;;;;;;;4.43;3.07;;;38.90;27.00;;;;;;5009525;28;20433;-69
2022/08/11 08:47:59;;;;;;;3.20;3.00;;;38.20;27.50;;;;;;5009053;28;20470;-69
2022/08/11 08:51:32;;;;;;;4.00;3.60;;;38.70;27.40;;;;;;5008156;28;20954;-69
2022/08/11 08:53:21;;;;;;;4.93;4.07;;;38.20;27.60;;;;;;5008898;28;20989;-69
2022/08/11 08:55:49;;;;;;;4.20;3.80;;;38.10;27.80;;;;;;5009859;28;21011;-69
2022/08/11 08:58:19;;;;;;;3.60;3.30;;;39.10;27.10;;;;;;5009676;28;20524;-70
2022/08/11 09:00:49;;;;;;;4.27;3.97;;;39.10;26.70;;;;;;5008565;28;20521;-70
2022/08/11 09:03:15;;;;;;;4.07;3.07;;;38.80;26.60;;;;;;5009066;28;20426;-70
2022/08/11 09:05:41;;;;;;;3.53;3.30;;;39.40;26.70;;;;;;5009110;28;20429;-70
2022/08/11 09:08:08;;;;;;;4.93;3.33;;;38.70;27.00;;;;;;5007882;28;20526;-70
2022/08/11 09:10:34;;;;;;;3.47;3.17;;;39.20;27.10;;;;;;5009727;28;20441;-70
2022/08/11 09:13:02;;;;;;;3.53;3.33;;;39.80;26.30;;;;;;5009234;28;20662;-70
2022/08/11 09:15:28;;;;;;;3.30;3.00;;;38.30;26.80;;;;;;5010530;28;20430;-70
2022/08/11 09:18:04;;;;;;;3.53;3.33;;;39.00;27.00;;;;;;5008395;28;20473;-70
2022/08/11 09:20:33;;;;;;;3.40;3.20;;;39.20;26.20;;;;;;5009572;28;20432;-71
2022/08/11 09:28:43;;;;;;;3.80;3.40;;;38.90;26.40;;;;;;5009264;28;20465;-70
2022/08/11 09:31:13;;;;;;;5.83;4.03;;;38.10;26.80;;;;;;5009409;28;20532;-69
2022/08/11 09:33:40;;;;;;;3.40;3.00;;;37.90;27.20;;;;;;5009677;28;20926;-70
2022/08/11 09:41:38;;;;;;;3.07;2.87;;;36.70;27.60;;;;;;5009631;28;20453;-70
2022/08/11 09:46:51;;;;;;;3.33;3.00;;;34.80;29.60;;;;;;5007343;28;20532;-70
2022/08/11 09:49:23;;;;;;;3.20;3.00;;;33.90;30.40;;;;;;5021957;28;20820;-69
2022/08/11 09:51:49;;;;;;;3.67;3.40;;;33.80;30.50;;;;;;5005794;28;20496;-72
2022/08/11 09:54:16;;;;;;;3.30;3.10;;;33.70;30.20;;;;;;4998445;28;20938;-69
2022/08/11 09:59:28;;;;;;;3.60;3.10;;;33.40;29.90;;;;;;5007289;28;20854;-71
2022/08/11 10:02:00;;;;;;;3.37;2.80;;;34.00;29.50;;;;;;5011308;28;20942;-70
2022/08/11 10:04:40;;;;;;;2.83;2.63;;;34.50;29.30;;;;;;5012450;28;20440;-70
2022/08/11 10:07:09;;;;;;;3.40;3.10;;;34.80;28.90;;;;;;5011528;28;20920;-70
2022/08/11 10:09:37;;;;;;;3.57;3.27;;;34.50;28.60;;;;;;5011052;28;20437;-71
2022/08/11 10:12:07;;;;;;;3.43;3.13;;;34.30;29.30;;;;;;5008791;28;20739;-70
2022/08/11 10:17:21;;;;;;;3.13;2.93;;;32.50;30.60;;;;;;4993048;28;20476;-70
2022/08/11 10:19:48;;;;;;;4.30;3.03;;;31.70;31.40;;;;;;5011499;28;20487;-70
2022/08/11 10:27:57;;;;;;;3.40;3.10;;;30.30;33.70;;;;;;5012152;28;20453;-71
2022/08/11 10:35:58;;;;;;;3.73;3.00;;;29.70;34.30;;;;;;5012395;28;20448;-70
2022/08/11 10:38:26;;;;;;;2.67;2.47;;;29.60;34.60;;;;;;5007678;28;20478;-70
2022/08/11 10:43:01;;;;;;;3.10;2.90;;;28.60;33.10;;;;;;5012984;28;20527;-70
2022/08/11 10:43:40;;;;;;;2.87;2.57;;;29.30;34.70;;;;;;5011826;28;20993;-70
2022/08/11 10:48:56;;;;;;;4.43;3.20;;;29.20;35.70;;;;;;5011898;28;20468;-70
2022/08/11 10:59:38;;;;;;;3.10;2.80;;;29.10;35.20;;;;;;5013259;28;20452;-68
2022/08/11 11:02:04;;;;;;;3.20;3.00;;;29.30;35.60;;;;;;5011099;28;20824;-68
2022/08/11 11:04:51;;;;;;;5.47;3.10;;;29.10;36.00;;;;;;5008149;28;20960;-68
2022/08/11 11:07:23;;;;;;;4.53;3.00;;;29.00;36.10;;;;;;4999782;28;20452;-68
2022/08/11 11:10:02;;;;;;;3.60;3.30;;;29.20;36.60;;;;;;5006150;28;20486;-68
2022/08/11 11:18:14;;;;;;;2.77;2.53;;;29.10;36.10;;;;;;5009202;28;20550;-67
2022/08/11 11:20:45;;;;;;;3.43;3.20;;;29.10;36.00;;;;;;5003952;28;20430;-68
2022/08/11 11:23:27;;;;;;;3.10;2.90;;;29.20;35.30;;;;;;5005890;28;20448;-68
2022/08/11 11:26:08;;;;;;;3.40;3.10;;;29.20;35.80;;;;;;5004716;28;20480;-68
2022/08/11 11:29:19;;;;;;;5.83;4.20;;;29.60;35.50;;;;;;5006345;28;20552;-68
2022/08/11 11:32:12;;;;;;;3.30;3.10;;;29.90;34.60;;;;;;4993874;28;20500;-68
2022/08/11 11:34:48;;;;;;;3.43;2.77;;;30.20;34.00;;;;;;5007031;28;20508;-66
2022/08/11 11:37:16;;;;;;;2.97;2.77;;;30.50;32.90;;;;;;5004696;28;20978;-68
2022/08/11 11:39:44;;;;;;;2.97;2.77;;;31.70;31.90;;;;;;5009355;28;20437;-68
2022/08/11 11:42:10;;;;;;;3.00;2.80;;;32.50;31.20;;;;;;5005494;28;20450;-68
2022/08/11 11:44:43;;;;;;;4.07;3.33;;;32.80;30.10;;;;;;5007347;28;20951;-68
2022/08/11 11:47:11;;;;;;;2.77;2.57;;;33.50;29.80;;;;;;5005770;28;20481;-67
2022/08/11 11:49:41;;;;;;;3.20;3.00;;;34.10;29.40;;;;;;5009851;28;20493;-67
2022/08/11 11:52:12;;;;;;;3.43;2.67;;;34.50;28.50;;;;;;5004420;28;20540;-68
2022/08/11 11:54:39;;;;;;;3.17;2.70;;;33.90;28.70;;;;;;5002091;28;20452;-69
2022/08/11 12:02:37;;;;;;;3.00;2.70;;;33.50;28.90;;;;;;5005706;28;21301;-66
2022/08/11 12:05:04;;;;;;;3.10;2.80;;;33.00;29.30;;;;;;5007912;28;20547;-68
2022/08/11 12:10:16;;;;;;;3.00;2.80;;;32.20;29.70;;;;;;5006217;28;20993;-68
2022/08/11 12:15:27;;;;;;;2.80;2.60;;;31.60;30.50;;;;;;5004995;28;20957;-67
2022/08/11 12:17:55;;;;;;;2.97;2.60;;;31.20;30.40;;;;;;5006126;28;21022;-66
2022/08/11 12:20:22;;;;;;;2.63;2.43;;;31.00;30.60;;;;;;5005340;28;20522;-68
2022/08/11 12:28:21;;;;;;;2.90;2.60;;;30.30;32.10;;;;;;5000341;28;20475;-70
2022/08/11 12:30:48;;;;;;;3.73;3.43;;;30.30;32.10;;;;;;5003706;28;20441;-69
2022/08/11 12:33:14;;;;;;;3.23;3.00;;;30.20;32.30;;;;;;5009078;28;20468;-67
2022/08/11 12:35:41;;;;;;;2.90;2.70;;;30.20;32.60;;;;;;5000676;28;20430;-67
2022/08/11 12:38:08;;;;;;;3.37;3.10;;;30.20;32.30;;;;;;5007074;28;20469;-66
2022/08/11 12:46:11;;;;;;;3.07;2.60;;;30.00;32.00;;;;;;5006309;28;20432;-67
2022/08/11 12:54:46;;;;;;;3.33;3.10;;;29.90;32.50;;;;;;5006090;28;20537;-65
2022/08/11 13:05:32;;;;;;;2.70;2.50;;;29.80;32.20;;;;;;5003191;28;20814;-66
2022/08/11 13:08:00;;;;;;;2.90;2.70;;;29.90;32.70;;;;;;5003546;28;20453;-67
2022/08/11 13:13:13;;;;;;;4.10;3.70;;;29.80;32.20;;;;;;5005856;28;20609;-66
2022/08/11 13:15:39;;;;;;;2.50;2.40;;;29.60;32.20;;;;;;5002371;28;20817;-65
2022/08/11 13:18:06;;;;;;;3.00;2.70;;;29.60;32.50;;;;;;5002733;28;20472;-64
2022/08/11 13:20:33;;;;;;;4.10;3.70;;;29.60;32.80;;;;;;5006290;28;20536;-63
2022/08/11 13:23:00;;;;;;;2.73;2.53;;;29.60;32.70;;;;;;5005926;28;23166;-64
2022/08/11 13:25:28;;;;;;;2.40;2.27;;;29.60;32.40;;;;;;4996646;28;20443;-64
2022/08/11 13:27:57;;;;;;;3.70;3.17;;;29.60;32.50;;;;;;5004572;28;20472;-67
2022/08/11 13:33:10;;;;;;;3.40;2.30;;;29.60;32.20;;;;;;5006941;28;20525;-69
2022/08/11 13:35:37;;;;;;;2.83;2.57;;;29.60;32.00;;;;;;5003400;28;20465;-70
2022/08/11 13:38:04;;;;;;;2.70;2.50;;;29.60;32.30;;;;;;5010892;28;20484;-69
2022/08/11 13:40:32;;;;;;;3.93;2.30;;;29.60;32.50;;;;;;5004618;28;20791;-69
2022/08/11 13:42:58;;;;;;;5.47;2.60;;;29.70;32.30;;;;;;5011870;28;20448;-70
2022/08/11 13:45:25;;;;;;;2.70;2.50;;;29.70;32.70;;;;;;5006571;28;20442;-70
2022/08/11 13:47:56;;;;;;;3.27;2.70;;;29.40;32.10;;;;;;5011775;28;20469;-65
2022/08/11 13:51:29;;;;;;;4.33;3.07;;;29.80;32.90;;;;;;5003485;28;20444;-65
2022/08/11 13:53:16;;;;;;;2.83;2.57;;;29.80;32.30;;;;;;5005778;28;20947;-64
2022/08/11 13:55:42;;;;;;;2.87;2.67;;;29.80;31.90;;;;;;5008501;28;20441;-70
2022/08/11 13:58:10;;;;;;;2.90;2.40;;;30.00;33.40;;;;;;5010878;28;21043;-68
2022/08/11 14:00:36;;;;;;;2.90;2.70;;;29.60;32.30;;;;;;5003343;28;20477;-69
2022/08/11 14:03:07;;;;;;;2.80;2.60;;;29.60;32.30;;;;;;4999100;28;20965;-70
2022/08/11 14:05:42;;;;;;;3.13;2.83;;;29.60;32.50;;;;;;5010545;28;20439;-70
2022/08/11 14:08:11;;;;;;;3.17;2.90;;;29.60;32.50;;;;;;5003930;28;20570;-70
2022/08/11 14:10:38;;;;;;;3.80;3.30;;;29.70;32.30;;;;;;5009326;28;20588;-64
2022/08/11 14:16:17;;;;;;;2.67;2.47;;;29.90;32.60;;;;;;5007147;28;20585;-68
2022/08/11 14:18:50;;;;;;;2.80;2.60;;;29.80;31.80;;;;;;5004059;28;20540;-61
2022/08/11 14:24:05;;;;;;;2.87;2.67;;;29.60;31.90;;;;;;5004184;28;20876;-62
2022/08/11 14:26:37;;;;;;;3.20;2.90;;;29.60;32.00;;;;;;5012489;28;20460;-61
2022/08/11 14:29:13;;;;;;;3.10;2.80;;;29.60;32.10;;;;;;5009269;28;20461;-61
2022/08/11 14:31:48;;;;;;;3.00;2.80;;;29.60;32.10;;;;;;5009262;28;20440;-61
2022/08/11 14:34:17;;;;;;;3.30;2.33;;;29.50;32.10;;;;;;5011264;28;20453;-61
2022/08/11 14:36:45;;;;;;;2.90;2.70;;;29.50;32.00;;;;;;5005184;28;20476;-62
2022/08/11 14:39:15;;;;;;;2.80;2.40;;;29.50;32.10;;;;;;5007386;28;20485;-66
2022/08/11 14:47:20;;;;;;;3.80;2.90;;;29.60;32.10;;;;;;5005212;28;20795;-69
2022/08/11 14:49:47;;;;;;;3.23;2.93;;;29.60;31.80;;;;;;5010060;28;20448;-66
2022/08/11 14:52:16;;;;;;;2.87;2.67;;;29.50;32.10;;;;;;5005209;28;20520;-65
2022/08/11 14:57:38;;;;;;;2.67;2.47;;;29.60;31.70;;;;;;5004179;28;20562;-68
2022/08/11 15:00:07;;;;;;;2.50;2.30;;;29.60;31.50;;;;;;5010310;28;20445;-61
2022/08/11 15:05:26;;;;;;;2.57;2.40;;;29.50;31.30;;;;;;5010821;28;20488;-63
2022/08/11 15:07:56;;;;;;;2.30;2.20;;;29.50;31.10;;;;;;5010536;28;20556;-62
2022/08/11 15:10:22;;;;;;;2.43;2.20;;;29.20;30.70;;;;;;5007203;28;20970;-63
2022/08/11 15:12:49;;;;;;;2.63;2.43;;;29.40;31.00;;;;;;5007898;28;20449;-64
2022/08/11 15:18:04;;;;;;;3.03;2.80;;;29.40;31.40;;;;;;5010140;28;20472;-60
2022/08/11 15:37:24;;;;;;;5.00;2.90;;;29.30;30.90;;;;;;5009978;28;20879;-64
2022/08/11 15:37:36;;;;;;;2.77;2.57;;;29.30;31.00;;;;;;4939694;28;21258;-61
2022/08/11 15:46:01;;;;;;;4.93;2.30;;;29.20;30.80;;;;;;5005256;28;20448;-62
2022/08/11 15:48:33;;;;;;;3.23;3.03;;;29.20;31.00;;;;;;5004897;28;20480;-62
2022/08/11 15:51:08;;;;;;;2.97;2.60;;;29.20;31.20;;;;;;5004862;28;20517;-62
2022/08/11 15:53:41;;;;;;;4.70;2.30;;;29.20;30.80;;;;;;5008329;28;20455;-63
2022/08/11 15:56:08;;;;;;;3.80;2.50;;;29.10;30.80;;;;;;5002747;28;20456;-61
2022/08/11 16:04:25;;;;;;;3.03;2.40;;;29.20;31.60;;;;;;5006611;28;20479;-64
2022/08/11 16:07:05;;;;;;;2.70;2.43;;;29.10;31.90;;;;;;5007257;28;20452;-64
2022/08/11 16:09:51;;;;;;;4.60;2.60;;;29.20;31.60;;;;;;5010202;28;20445;-64
2022/08/11 16:12:23;;;;;;;3.80;2.87;;;29.10;31.60;;;;;;5007426;28;20980;-64
2022/08/11 16:17:45;;;;;;;3.10;2.90;;;29.10;31.80;;;;;;5004851;28;20483;-65
2022/08/11 16:20:13;;;;;;;5.63;3.17;;;29.00;31.70;;;;;;5011350;28;20551;-65
2022/08/11 16:22:42;;;;;;;3.97;2.90;;;29.00;32.40;;;;;;5009958;28;20520;-65
2022/08/11 16:25:15;;;;;;;2.70;2.50;;;29.10;32.30;;;;;;5009332;28;20433;-65
2022/08/11 16:27:45;;;;;;;4.20;2.70;;;29.10;32.50;;;;;;5009588;28;20460;-64
2022/08/11 16:30:13;;;;;;;6.17;3.13;;;29.00;32.30;;;;;;5007573;28;20818;-65
2022/08/11 16:32:43;;;;;;;4.00;2.70;;;29.00;32.60;;;;;;5009787;28;20447;-65
2022/08/11 16:40:54;;;;;;;3.30;3.00;;;28.90;32.30;;;;;;5001034;28;20482;-64
2022/08/11 16:48:57;;;;;;;2.60;2.40;;;28.90;32.60;;;;;;5009848;28;20484;-65
2022/08/11 16:51:23;;;;;;;2.93;2.73;;;28.80;32.50;;;;;;5010660;28;20435;-63
2022/08/11 16:53:50;;;;;;;2.80;2.60;;;28.80;32.40;;;;;;5008473;28;20530;-63
2022/08/11 16:56:20;;;;;;;3.00;2.40;;;28.70;32.40;;;;;;5011926;28;20547;-64
2022/08/11 17:01:37;;;;;;;3.30;2.90;;;28.70;31.90;;;;;;5007776;28;20467;-64
2022/08/11 17:18:39;;;;;;;2.90;2.50;;;28.60;32.60;;;;;;5009104;28;20483;-65
2022/08/11 17:21:02;;;;;;;2.60;2.50;;;28.60;32.20;;;;;;5013402;28;21191;-64
2022/08/11 17:26:58;;;;;;;5.50;2.80;;;28.50;32.60;;;;;;5002818;28;20426;-65
2022/08/11 17:29:27;;;;;;;3.50;3.20;;;28.50;32.60;;;;;;5018066;28;20462;-65
2022/08/11 17:37:29;;;;;;;2.90;2.60;;;28.40;32.70;;;;;;5001768;28;20883;-64
2022/08/11 17:39:58;;;;;;;4.50;2.80;;;28.40;33.00;;;;;;5013067;28;20446;-65
2022/08/11 17:50:44;;;;;;;2.80;2.60;;;28.20;33.30;;;;;;5010914;28;20493;-65
2022/08/11 18:01:32;;;;;;;2.90;2.60;;;28.10;33.40;;;;;;5002699;28;20576;-65
2022/08/11 18:03:59;;;;;;;2.90;2.70;;;28.10;33.30;;;;;;5019075;28;20905;-65
2022/08/11 18:06:29;;;;;;;3.03;2.73;;;28.00;33.50;;;;;;5010910;28;20534;-65
